Time;durP1;ratioP1;P1;durP2;ratioP2;P2;SDS_P1;SDS_P2;PMS_P1;PMS_P2;Temp;Humidity;BMP_temperature;BMP_pressure;BME280_temperature;BME280_humidity;BME280_pressure;Samples;Min_cycle;Max_cycle;Signal;HPM_P1;HPM_P2
2021/08/08 00:01:10;;;;;;;2.10;0.30;;;;;;;;;;4938364;29;20024;-86
2021/08/08 00:03:36;;;;;;;2.90;0.50;;;;;;;;;;4939819;29;20549;-87
2021/08/08 00:06:03;;;;;;;0.55;0.22;;;;;;;;;;4939462;29;20031;-86
2021/08/08 00:08:31;;;;;;;0.60;0.30;;;;;;;;;;4938350;29;20122;-89
2021/08/08 00:10:57;;;;;;;2.63;0.50;;;;;;;;;;4938231;29;20059;-89
2021/08/08 00:13:23;;;;;;;3.47;0.40;;;;;;;;;;4938076;29;20055;-87
2021/08/08 00:15:49;;;;;;;1.02;0.30;;;;;;;;;;4938536;29;20039;-87
2021/08/08 00:18:15;;;;;;;1.05;0.30;;;;;;;;;;4938280;29;20035;-91
2021/08/08 00:20:42;;;;;;;0.57;0.20;;;;;;;;;;4937168;29;20051;-87
2021/08/08 00:23:08;;;;;;;0.88;0.20;;;;;;;;;;4938320;29;20035;-90
2021/08/08 00:25:34;;;;;;;2.00;0.30;;;;;;;;;;4937971;29;20028;-91
2021/08/08 00:28:01;;;;;;;1.42;0.47;;;;;;;;;;4938000;29;20111;-90
2021/08/08 00:30:27;;;;;;;1.08;0.30;;;;;;;;;;4937892;29;20028;-86
2021/08/08 00:32:53;;;;;;;0.75;0.30;;;;;;;;;;4937638;29;20046;-87
2021/08/08 00:35:20;;;;;;;1.15;0.40;;;;;;;;;;4938238;29;20028;-88
2021/08/08 00:37:47;;;;;;;4.30;0.40;;;;;;;;;;4939715;29;20032;-87
2021/08/08 00:40:14;;;;;;;1.33;0.40;;;;;;;;;;4937598;29;20024;-87
2021/08/08 00:42:46;;;;;;;1.55;0.50;;;;;;;;;;4937849;29;20034;-89
2021/08/08 00:45:14;;;;;;;2.20;0.20;;;;;;;;;;4937868;29;20075;-88
2021/08/08 00:47:40;;;;;;;2.08;0.20;;;;;;;;;;4937948;29;20123;-94
2021/08/08 00:50:06;;;;;;;0.73;0.30;;;;;;;;;;4938079;29;20405;-91
2021/08/08 00:52:33;;;;;;;0.50;0.30;;;;;;;;;;4937407;29;20052;-91
2021/08/08 00:55:00;;;;;;;0.85;0.30;;;;;;;;;;4937491;29;20461;-91
2021/08/08 00:57:26;;;;;;;1.13;0.40;;;;;;;;;;4937515;29;20053;-91
2021/08/08 00:59:52;;;;;;;0.77;0.30;;;;;;;;;;4937459;29;20417;-88
2021/08/08 01:02:22;;;;;;;1.27;0.30;;;;;;;;;;4937325;29;20028;-90
2021/08/08 01:04:54;;;;;;;0.75;0.30;;;;;;;;;;4937572;29;20094;-90
2021/08/08 01:07:22;;;;;;;1.33;0.30;;;;;;;;;;4937227;29;20027;-90
2021/08/08 01:09:50;;;;;;;0.93;0.20;;;;;;;;;;4937523;29;20473;-93
2021/08/08 01:12:16;;;;;;;0.60;0.25;;;;;;;;;;4937314;29;20492;-91
2021/08/08 01:14:43;;;;;;;1.20;0.40;;;;;;;;;;4937427;29;20028;-87
2021/08/08 01:17:10;;;;;;;0.60;0.20;;;;;;;;;;4937876;29;20484;-92
2021/08/08 01:19:42;;;;;;;0.57;0.20;;;;;;;;;;4939105;29;20023;-88
2021/08/08 01:22:08;;;;;;;1.52;0.38;;;;;;;;;;4936941;29;20031;-92
2021/08/08 01:24:34;;;;;;;0.50;0.20;;;;;;;;;;4937012;29;20034;-90
2021/08/08 01:27:02;;;;;;;0.93;0.40;;;;;;;;;;4937281;29;20503;-89
2021/08/08 01:29:30;;;;;;;0.90;0.30;;;;;;;;;;4937137;29;20024;-90
2021/08/08 01:31:57;;;;;;;1.05;0.30;;;;;;;;;;4936014;29;20464;-92
2021/08/08 01:34:23;;;;;;;0.70;0.30;;;;;;;;;;4937166;29;20059;-88
2021/08/08 01:36:50;;;;;;;0.77;0.40;;;;;;;;;;4936639;29;20023;-88
2021/08/08 01:39:18;;;;;;;0.52;0.30;;;;;;;;;;4936702;29;20104;-88
2021/08/08 01:41:52;;;;;;;4.00;0.40;;;;;;;;;;4936664;29;20073;-87
2021/08/08 01:44:20;;;;;;;0.77;0.38;;;;;;;;;;4936760;29;20031;-91
2021/08/08 01:46:51;;;;;;;0.77;0.30;;;;;;;;;;4936630;29;20035;-87
2021/08/08 01:49:19;;;;;;;0.55;0.30;;;;;;;;;;4936851;29;20623;-87
2021/08/08 01:51:45;;;;;;;2.35;0.32;;;;;;;;;;4936079;29;20055;-90
2021/08/08 01:54:11;;;;;;;0.82;0.30;;;;;;;;;;4936611;29;20024;-89
2021/08/08 01:56:37;;;;;;;1.05;0.50;;;;;;;;;;4936690;29;20473;-91
2021/08/08 01:59:04;;;;;;;16.55;0.73;;;;;;;;;;4936893;29;20070;-87
2021/08/08 02:01:31;;;;;;;5.57;0.50;;;;;;;;;;4936974;29;20028;-89
2021/08/08 02:03:57;;;;;;;3.22;0.50;;;;;;;;;;4938889;29;20115;-91
2021/08/08 02:06:23;;;;;;;1.77;0.50;;;;;;;;;;4938480;29;20503;-91
2021/08/08 02:08:49;;;;;;;2.85;0.40;;;;;;;;;;4936608;29;20453;-93
2021/08/08 02:11:16;;;;;;;2.03;0.70;;;;;;;;;;4936468;29;20071;-89
2021/08/08 02:13:42;;;;;;;4.65;0.70;;;;;;;;;;4936540;29;20027;-90
2021/08/08 02:16:08;;;;;;;1.10;0.50;;;;;;;;;;4936300;29;20028;-90
2021/08/08 02:18:35;;;;;;;1.20;0.40;;;;;;;;;;4936996;29;20465;-92
2021/08/08 02:21:01;;;;;;;0.90;0.40;;;;;;;;;;4936025;29;20028;-89
2021/08/08 02:23:27;;;;;;;7.53;0.52;;;;;;;;;;4936105;29;20500;-89
2021/08/08 02:25:53;;;;;;;1.00;0.50;;;;;;;;;;4936087;29;20079;-91
2021/08/08 02:28:20;;;;;;;1.90;0.45;;;;;;;;;;4936022;29;20031;-93
2021/08/08 02:30:46;;;;;;;1.23;0.40;;;;;;;;;;4936358;29;20036;-92
2021/08/08 02:33:12;;;;;;;1.00;0.32;;;;;;;;;;4935726;29;20050;-92
2021/08/08 02:35:38;;;;;;;0.73;0.30;;;;;;;;;;4935970;29;20047;-90
2021/08/08 02:38:04;;;;;;;1.08;0.50;;;;;;;;;;4936041;29;20035;-92
2021/08/08 02:40:31;;;;;;;0.82;0.43;;;;;;;;;;4936190;29;20429;-92
2021/08/08 02:42:57;;;;;;;1.38;0.60;;;;;;;;;;4935814;29;20083;-89
2021/08/08 02:45:24;;;;;;;2.60;0.77;;;;;;;;;;4935578;29;20032;-88
2021/08/08 02:47:50;;;;;;;1.58;0.82;;;;;;;;;;4937561;29;20028;-89
2021/08/08 02:50:16;;;;;;;2.17;0.95;;;;;;;;;;4935217;29;20023;-88
2021/08/08 02:52:42;;;;;;;3.08;0.80;;;;;;;;;;4935520;29;20075;-88
2021/08/08 02:55:10;;;;;;;3.08;1.00;;;;;;;;;;4935453;29;20059;-87
2021/08/08 02:57:36;;;;;;;1.60;0.98;;;;;;;;;;4935411;29;20059;-88
2021/08/08 03:00:03;;;;;;;1.65;0.90;;;;;;;;;;4937020;29;20028;-88
2021/08/08 03:02:29;;;;;;;1.95;0.90;;;;;;;;;;4935211;29;20539;-88
2021/08/08 03:04:55;;;;;;;1.80;0.98;;;;;;;;;;4935377;29;20117;-88
2021/08/08 03:07:22;;;;;;;1.75;1.02;;;;;;;;;;4935658;29;20034;-89
2021/08/08 03:09:48;;;;;;;2.05;0.85;;;;;;;;;;4935801;29;20027;-90
2021/08/08 03:12:14;;;;;;;1.38;0.60;;;;;;;;;;4935406;29;20067;-88
2021/08/08 03:14:40;;;;;;;2.40;0.88;;;;;;;;;;4935373;29;20024;-88
2021/08/08 03:17:06;;;;;;;1.88;0.80;;;;;;;;;;4935430;29;20392;-88
2021/08/08 03:19:32;;;;;;;3.40;1.20;;;;;;;;;;4935278;29;20030;-89
2021/08/08 03:21:58;;;;;;;2.53;0.77;;;;;;;;;;4935265;29;20050;-89
2021/08/08 03:24:25;;;;;;;1.38;0.80;;;;;;;;;;4936309;29;20067;-89
2021/08/08 03:26:51;;;;;;;3.03;0.80;;;;;;;;;;4935094;29;20091;-87
2021/08/08 03:29:17;;;;;;;2.78;0.63;;;;;;;;;;4935223;29;20032;-88
2021/08/08 03:31:44;;;;;;;2.08;0.80;;;;;;;;;;4934923;29;20127;-87
2021/08/08 03:34:10;;;;;;;2.03;0.82;;;;;;;;;;4935141;29;20451;-87
2021/08/08 03:36:36;;;;;;;2.63;0.70;;;;;;;;;;4935351;29;20032;-91
2021/08/08 03:39:03;;;;;;;1.80;0.80;;;;;;;;;;4935455;29;20047;-89
2021/08/08 03:41:29;;;;;;;2.28;0.80;;;;;;;;;;4935342;29;20050;-89
2021/08/08 03:43:55;;;;;;;2.17;0.60;;;;;;;;;;4934927;29;20035;-88
2021/08/08 03:46:22;;;;;;;1.35;0.52;;;;;;;;;;4936517;29;20024;-87
2021/08/08 03:48:48;;;;;;;1.17;0.50;;;;;;;;;;4935598;29;20028;-89
2021/08/08 03:51:14;;;;;;;1.30;0.50;;;;;;;;;;4934873;29;20048;-90
2021/08/08 03:53:40;;;;;;;1.38;0.80;;;;;;;;;;4935150;29;20421;-89
2021/08/08 03:56:06;;;;;;;2.03;0.70;;;;;;;;;;4938352;29;20032;-87
2021/08/08 03:58:33;;;;;;;1.05;0.50;;;;;;;;;;4938836;29;20035;-90
2021/08/08 04:01:00;;;;;;;1.40;0.57;;;;;;;;;;4938478;29;20038;-87
2021/08/08 04:03:27;;;;;;;1.73;0.77;;;;;;;;;;4938451;29;20389;-90
2021/08/08 04:05:53;;;;;;;1.02;0.63;;;;;;;;;;4938202;29;20031;-90
2021/08/08 04:08:19;;;;;;;1.90;0.65;;;;;;;;;;4938371;29;20027;-88
2021/08/08 04:10:45;;;;;;;2.63;0.80;;;;;;;;;;4938716;29;20059;-90
2021/08/08 04:13:11;;;;;;;1.20;0.60;;;;;;;;;;4939304;29;20180;-89
2021/08/08 04:15:38;;;;;;;1.20;0.60;;;;;;;;;;4938082;29;20034;-87
2021/08/08 04:18:04;;;;;;;1.40;0.50;;;;;;;;;;4939796;29;20038;-91
2021/08/08 04:20:30;;;;;;;1.15;0.60;;;;;;;;;;4938417;29;20028;-88
2021/08/08 04:22:56;;;;;;;3.28;0.80;;;;;;;;;;4939480;29;20034;-91
2021/08/08 04:25:23;;;;;;;1.17;0.60;;;;;;;;;;4939094;29;20028;-87
2021/08/08 04:27:49;;;;;;;2.13;0.65;;;;;;;;;;4937753;29;20050;-88
2021/08/08 04:30:15;;;;;;;1.70;1.00;;;;;;;;;;4938136;29;20039;-88
2021/08/08 04:32:41;;;;;;;2.10;0.90;;;;;;;;;;4937550;29;20184;-89
2021/08/08 04:35:07;;;;;;;1.73;0.80;;;;;;;;;;4937962;29;20036;-90
2021/08/08 04:37:34;;;;;;;1.27;0.60;;;;;;;;;;4938111;29;20027;-90
2021/08/08 04:40:00;;;;;;;1.00;0.60;;;;;;;;;;4938574;29;20091;-91
2021/08/08 04:42:26;;;;;;;1.85;0.52;;;;;;;;;;4940274;29;20037;-87
2021/08/08 04:44:52;;;;;;;2.30;0.73;;;;;;;;;;4937698;29;20078;-90
2021/08/08 04:47:18;;;;;;;1.10;0.55;;;;;;;;;;4937362;29;20122;-90
2021/08/08 04:49:45;;;;;;;1.30;0.65;;;;;;;;;;4938813;29;20024;-85
2021/08/08 04:52:11;;;;;;;1.50;0.80;;;;;;;;;;4937376;29;20055;-90
2021/08/08 04:54:37;;;;;;;2.03;0.90;;;;;;;;;;4938752;29;20023;-87
2021/08/08 04:57:04;;;;;;;1.25;0.68;;;;;;;;;;4937373;29;20032;-91
2021/08/08 04:59:30;;;;;;;1.80;0.70;;;;;;;;;;4937391;29;20027;-89
2021/08/08 05:01:56;;;;;;;1.25;0.60;;;;;;;;;;4937453;29;20028;-90
2021/08/08 05:04:22;;;;;;;1.67;0.80;;;;;;;;;;4937470;29;20032;-89
2021/08/08 05:06:48;;;;;;;2.25;0.70;;;;;;;;;;4937250;29;20071;-87
2021/08/08 05:09:16;;;;;;;1.90;0.82;;;;;;;;;;4937326;29;20028;-87
2021/08/08 05:11:42;;;;;;;1.80;0.77;;;;;;;;;;4937121;29;20032;-90
2021/08/08 05:14:08;;;;;;;2.25;0.80;;;;;;;;;;4940312;29;20039;-90
2021/08/08 05:16:34;;;;;;;1.55;0.60;;;;;;;;;;4937262;29;20366;-90
2021/08/08 05:19:00;;;;;;;1.30;0.60;;;;;;;;;;4936574;29;20032;-87
2021/08/08 05:21:26;;;;;;;2.05;0.93;;;;;;;;;;4936267;29;20027;-86
2021/08/08 05:23:52;;;;;;;1.27;0.60;;;;;;;;;;4936579;29;20086;-85
2021/08/08 05:26:19;;;;;;;1.73;0.57;;;;;;;;;;4936199;29;20090;-87
2021/08/08 05:28:45;;;;;;;1.15;0.50;;;;;;;;;;4936388;29;20027;-90
2021/08/08 05:31:11;;;;;;;1.20;0.47;;;;;;;;;;4936108;29;20167;-85
2021/08/08 05:33:38;;;;;;;2.03;0.50;;;;;;;;;;4937397;29;20044;-88
2021/08/08 05:36:04;;;;;;;1.58;0.60;;;;;;;;;;4936243;29;20028;-85
2021/08/08 05:38:32;;;;;;;1.08;0.50;;;;;;;;;;4936057;29;20039;-86
2021/08/08 05:40:58;;;;;;;1.42;0.70;;;;;;;;;;4938144;29;20027;-85
2021/08/08 05:43:24;;;;;;;2.72;0.60;;;;;;;;;;4935879;29;20035;-84
2021/08/08 05:45:50;;;;;;;1.98;0.80;;;;;;;;;;4936040;29;20143;-86
2021/08/08 05:48:16;;;;;;;1.45;0.50;;;;;;;;;;4935849;29;20493;-85
2021/08/08 05:50:42;;;;;;;1.50;0.60;;;;;;;;;;4935607;29;20138;-86
2021/08/08 05:53:09;;;;;;;1.23;0.43;;;;;;;;;;4935602;29;20067;-86
2021/08/08 05:55:36;;;;;;;1.00;0.47;;;;;;;;;;4935763;29;20064;-84
2021/08/08 05:58:03;;;;;;;1.27;0.65;;;;;;;;;;4935740;29;20381;-86
2021/08/08 06:00:29;;;;;;;1.55;0.40;;;;;;;;;;4935524;29;20118;-84
2021/08/08 06:02:55;;;;;;;0.93;0.30;;;;;;;;;;4936043;29;20032;-83
2021/08/08 06:05:21;;;;;;;0.63;0.28;;;;;;;;;;4937295;29;20114;-85
2021/08/08 06:07:47;;;;;;;1.77;0.50;;;;;;;;;;4935404;29;20028;-86
2021/08/08 06:10:13;;;;;;;1.10;0.43;;;;;;;;;;4935457;29;20032;-85
2021/08/08 06:12:39;;;;;;;0.52;0.35;;;;;;;;;;4935223;29;20047;-84
2021/08/08 06:15:06;;;;;;;1.42;0.57;;;;;;;;;;4936494;29;20079;-86
2021/08/08 06:17:32;;;;;;;1.42;0.43;;;;;;;;;;4934730;29;20118;-86
2021/08/08 06:20:00;;;;;;;0.68;0.30;;;;;;;;;;4935633;29;20072;-86
2021/08/08 06:22:26;;;;;;;1.35;0.50;;;;;;;;;;4935167;29;20036;-85
2021/08/08 06:24:53;;;;;;;1.05;0.40;;;;;;;;;;4936419;29;20054;-84
2021/08/08 06:27:19;;;;;;;1.05;0.40;;;;;;;;;;4936403;29;20059;-87
2021/08/08 06:29:45;;;;;;;1.10;0.40;;;;;;;;;;4935161;29;20031;-86
2021/08/08 06:32:11;;;;;;;0.70;0.32;;;;;;;;;;4934871;29;20074;-87
2021/08/08 06:34:37;;;;;;;0.93;0.40;;;;;;;;;;4935138;29;20032;-85
2021/08/08 06:37:04;;;;;;;2.03;0.35;;;;;;;;;;4936461;29;20028;-85
2021/08/08 06:39:30;;;;;;;0.60;0.30;;;;;;;;;;4936333;29;20038;-84
2021/08/08 06:41:56;;;;;;;1.77;0.43;;;;;;;;;;4935452;29;20039;-86
2021/08/08 06:44:22;;;;;;;2.15;0.30;;;;;;;;;;4934957;29;20027;-87
2021/08/08 06:46:49;;;;;;;1.33;0.40;;;;;;;;;;4935314;29;20059;-86
2021/08/08 06:49:15;;;;;;;0.90;0.40;;;;;;;;;;4936303;29;20031;-85
2021/08/08 06:51:41;;;;;;;0.60;0.32;;;;;;;;;;4936220;29;20043;-85
2021/08/08 06:54:07;;;;;;;1.08;0.50;;;;;;;;;;4936103;29;20044;-87
2021/08/08 06:56:33;;;;;;;0.50;0.25;;;;;;;;;;4935059;29;20115;-88
2021/08/08 06:58:59;;;;;;;1.77;0.52;;;;;;;;;;4934948;29;20485;-87
2021/08/08 07:01:25;;;;;;;1.83;0.30;;;;;;;;;;4935035;29;20043;-88
2021/08/08 07:03:51;;;;;;;1.40;0.40;;;;;;;;;;4935109;29;20544;-88
2021/08/08 07:06:18;;;;;;;0.68;0.32;;;;;;;;;;4934836;29;20079;-88
2021/08/08 07:08:44;;;;;;;0.90;0.40;;;;;;;;;;4935101;29;20570;-86
2021/08/08 07:11:10;;;;;;;5.60;0.43;;;;;;;;;;4935142;29;20105;-85
2021/08/08 07:13:39;;;;;;;0.90;0.30;;;;;;;;;;4934847;29;20046;-87
2021/08/08 07:16:06;;;;;;;0.38;0.20;;;;;;;;;;4934928;29;20440;-89
2021/08/08 07:18:32;;;;;;;0.70;0.30;;;;;;;;;;4934899;29;20114;-86
2021/08/08 07:20:58;;;;;;;1.15;0.30;;;;;;;;;;4936126;29;20362;-87
2021/08/08 07:23:25;;;;;;;0.98;0.30;;;;;;;;;;4934841;29;20024;-88
2021/08/08 07:25:51;;;;;;;0.40;0.20;;;;;;;;;;4934851;29;20071;-89
2021/08/08 07:28:17;;;;;;;1.90;0.40;;;;;;;;;;4935506;29;20078;-87
2021/08/08 07:30:43;;;;;;;0.88;0.40;;;;;;;;;;4938777;29;20067;-87
2021/08/08 07:33:09;;;;;;;0.75;0.30;;;;;;;;;;4938731;29;20043;-89
2021/08/08 07:35:36;;;;;;;0.73;0.13;;;;;;;;;;4938431;29;20568;-90
2021/08/08 07:38:05;;;;;;;0.70;0.30;;;;;;;;;;4939717;29;20049;-88
2021/08/08 07:40:32;;;;;;;0.43;0.20;;;;;;;;;;4938608;29;20080;-88
2021/08/08 07:42:58;;;;;;;0.65;0.20;;;;;;;;;;4938898;29;20028;-89
2021/08/08 07:45:24;;;;;;;0.30;0.10;;;;;;;;;;4938461;29;20125;-89
2021/08/08 07:47:50;;;;;;;0.88;0.20;;;;;;;;;;4938879;29;20060;-87
2021/08/08 07:50:16;;;;;;;0.45;0.17;;;;;;;;;;4938016;29;20079;-90
2021/08/08 07:52:42;;;;;;;1.38;0.13;;;;;;;;;;4938580;29;20110;-88
2021/08/08 07:55:09;;;;;;;0.60;0.10;;;;;;;;;;4938360;29;20030;-89
2021/08/08 07:57:35;;;;;;;1.25;0.20;;;;;;;;;;4939907;29;20507;-89
2021/08/08 08:00:02;;;;;;;0.40;0.13;;;;;;;;;;4938195;29;20488;-87
2021/08/08 08:02:28;;;;;;;0.13;0.08;;;;;;;;;;4938527;29;20031;-87
2021/08/08 08:04:54;;;;;;;0.52;0.20;;;;;;;;;;4937906;29;20106;-89
2021/08/08 08:07:20;;;;;;;0.35;0.10;;;;;;;;;;4938109;29;20126;-88
2021/08/08 08:09:46;;;;;;;0.88;0.20;;;;;;;;;;4938441;29;20400;-89
2021/08/08 08:12:12;;;;;;;0.38;0.10;;;;;;;;;;4938167;29;20126;-88
2021/08/08 08:14:38;;;;;;;2.30;0.13;;;;;;;;;;4939500;29;20059;-87
2021/08/08 08:17:04;;;;;;;0.38;0.10;;;;;;;;;;4939431;29;20028;-87
2021/08/08 08:19:31;;;;;;;0.38;0.10;;;;;;;;;;4937974;29;20032;-87
2021/08/08 08:21:57;;;;;;;0.40;0.10;;;;;;;;;;4937922;29;20034;-88
2021/08/08 08:24:23;;;;;;;0.45;0.20;;;;;;;;;;4938943;29;20032;-88
2021/08/08 08:26:49;;;;;;;0.98;0.20;;;;;;;;;;4937604;29;20051;-90
2021/08/08 08:29:15;;;;;;;1.17;0.20;;;;;;;;;;4937465;29;20031;-93
2021/08/08 08:31:41;;;;;;;0.32;0.20;;;;;;;;;;4937893;29;21979;-89
2021/08/08 08:34:08;;;;;;;0.70;0.10;;;;;;;;;;4938926;29;20027;-89
2021/08/08 08:36:35;;;;;;;0.50;0.15;;;;;;;;;;4937835;29;20035;-89
2021/08/08 08:39:02;;;;;;;0.30;0.10;;;;;;;;;;4937297;29;20031;-89
2021/08/08 08:41:30;;;;;;;0.40;0.20;;;;;;;;;;4937948;29;20378;-88
2021/08/08 08:43:57;;;;;;;0.75;0.22;;;;;;;;;;4937148;29;20032;-90
2021/08/08 08:46:24;;;;;;;2.75;0.30;;;;;;;;;;4938469;29;20031;-88
2021/08/08 08:48:53;;;;;;;0.50;0.25;;;;;;;;;;4937291;29;20397;-91
2021/08/08 08:51:20;;;;;;;0.60;0.30;;;;;;;;;;4937170;29;20409;-88
2021/08/08 08:53:47;;;;;;;0.47;0.20;;;;;;;;;;4937272;29;20051;-88
2021/08/08 08:56:14;;;;;;;0.60;0.20;;;;;;;;;;4937326;29;20059;-88
2021/08/08 08:58:41;;;;;;;0.98;0.22;;;;;;;;;;4937131;29;20035;-91
2021/08/08 09:01:07;;;;;;;0.73;0.30;;;;;;;;;;4937192;29;20067;-91
2021/08/08 09:03:33;;;;;;;0.98;0.30;;;;;;;;;;4937112;29;20043;-88
2021/08/08 09:05:59;;;;;;;0.70;0.20;;;;;;;;;;4937268;29;20024;-89
2021/08/08 09:08:25;;;;;;;0.55;0.25;;;;;;;;;;4939184;29;20036;-90
2021/08/08 09:11:05;;;;;;;5.03;0.57;;;;;;;;;;4938347;29;20049;-89
2021/08/08 09:13:32;;;;;;;0.75;0.20;;;;;;;;;;4938226;29;20481;-88
2021/08/08 09:15:58;;;;;;;0.60;0.28;;;;;;;;;;4936842;29;20028;-88
2021/08/08 09:18:24;;;;;;;0.85;0.30;;;;;;;;;;4936990;29;20067;-90
2021/08/08 09:20:52;;;;;;;2.78;0.40;;;;;;;;;;4936384;29;20508;-90
2021/08/08 09:23:19;;;;;;;2.53;0.38;;;;;;;;;;4938253;29;20027;-89
2021/08/08 09:25:52;;;;;;;0.55;0.20;;;;;;;;;;4936521;29;20211;-89
2021/08/08 09:28:19;;;;;;;0.40;0.17;;;;;;;;;;4936466;29;20028;-90
2021/08/08 09:30:45;;;;;;;0.50;0.20;;;;;;;;;;4939267;29;20432;-89
2021/08/08 09:33:12;;;;;;;0.80;0.20;;;;;;;;;;4924936;29;20608;-87
2021/08/08 09:35:41;;;;;;;0.77;0.28;;;;;;;;;;4939178;29;20070;-87
2021/08/08 09:38:08;;;;;;;1.52;0.55;;;;;;;;;;4937412;29;20384;-88
2021/08/08 09:40:39;;;;;;;1.90;0.50;;;;;;;;;;4936456;29;20024;-89
2021/08/08 09:43:06;;;;;;;0.85;0.30;;;;;;;;;;4938843;29;20405;-88
2021/08/08 09:45:42;;;;;;;0.60;0.30;;;;;;;;;;4936774;29;20020;-90
2021/08/08 09:48:11;;;;;;;1.83;0.68;;;;;;;;;;4937911;29;20031;-90
2021/08/08 09:50:38;;;;;;;1.02;0.40;;;;;;;;;;4937350;29;20490;-90
2021/08/08 09:53:06;;;;;;;0.88;0.30;;;;;;;;;;4935170;29;20043;-90
2021/08/08 09:55:35;;;;;;;0.50;0.17;;;;;;;;;;4937146;29;20023;-89
2021/08/08 09:58:02;;;;;;;0.65;0.20;;;;;;;;;;4937665;29;20027;-90
2021/08/08 10:00:28;;;;;;;1.13;0.20;;;;;;;;;;4935937;29;20039;-89
2021/08/08 10:02:55;;;;;;;0.32;0.10;;;;;;;;;;4938082;29;20026;-92
2021/08/08 10:05:22;;;;;;;3.50;0.20;;;;;;;;;;4936544;29;20035;-89
2021/08/08 10:07:49;;;;;;;0.55;0.30;;;;;;;;;;4935306;29;20397;-89
2021/08/08 10:10:16;;;;;;;0.98;0.40;;;;;;;;;;4935258;29;20031;-88
2021/08/08 10:13:01;;;;;;;1.20;0.30;;;;;;;;;;4935588;29;20123;-89
2021/08/08 10:15:28;;;;;;;0.40;0.20;;;;;;;;;;4935857;29;20111;-88
2021/08/08 10:17:54;;;;;;;0.85;0.20;;;;;;;;;;4935498;29;20036;-90
2021/08/08 10:20:21;;;;;;;0.70;0.32;;;;;;;;;;4935371;29;20031;-88
2021/08/08 10:22:49;;;;;;;0.90;0.20;;;;;;;;;;4936207;29;20036;-88
2021/08/08 10:25:16;;;;;;;0.75;0.20;;;;;;;;;;4935553;29;20028;-90
2021/08/08 10:27:42;;;;;;;0.70;0.28;;;;;;;;;;4935501;29;20504;-88
2021/08/08 10:30:09;;;;;;;0.63;0.22;;;;;;;;;;4935423;29;20051;-87
2021/08/08 10:32:35;;;;;;;0.50;0.20;;;;;;;;;;4935308;29;20047;-90
2021/08/08 10:35:17;;;;;;;0.55;0.25;;;;;;;;;;4936471;29;20024;-90
2021/08/08 10:37:43;;;;;;;;;;;;;;;;;;4939613;29;20034;-88
2021/08/08 10:40:12;;;;;;;1.75;0.20;;;;;;;;;;4943879;29;19907;-89
2021/08/08 10:42:41;;;;;;;0.52;0.20;;;;;;;;;;4943947;29;20016;-88
2021/08/08 10:45:08;;;;;;;1.00;0.30;;;;;;;;;;4947047;29;20047;-90
2021/08/08 10:47:34;;;;;;;0.38;0.20;;;;;;;;;;4942658;29;20503;-89
2021/08/08 10:50:11;;;;;;;0.82;0.10;;;;;;;;;;4944772;29;20113;-88
2021/08/08 10:52:44;;;;;;;0.93;0.30;;;;;;;;;;4944104;29;20043;-90
2021/08/08 10:55:24;;;;;;;1.25;0.30;;;;;;;;;;4940860;29;20028;-89
2021/08/08 10:57:50;;;;;;;0.70;0.30;;;;;;;;;;4935007;29;20570;-90
2021/08/08 11:00:17;;;;;;;1.88;0.20;;;;;;;;;;4935113;29;20079;-89
2021/08/08 11:02:47;;;;;;;0.63;0.30;;;;;;;;;;4935045;29;20038;-86
2021/08/08 11:05:17;;;;;;;0.75;0.30;;;;;;;;;;4939007;29;20035;-90
2021/08/08 11:07:45;;;;;;;0.55;0.22;;;;;;;;;;4938264;29;20030;-87
2021/08/08 11:10:12;;;;;;;1.15;0.28;;;;;;;;;;4938390;29;20032;-89
2021/08/08 11:12:41;;;;;;;0.52;0.20;;;;;;;;;;4938335;29;20039;-90
2021/08/08 11:15:09;;;;;;;0.60;0.28;;;;;;;;;;4938346;29;20035;-86
2021/08/08 11:17:36;;;;;;;0.22;0.10;;;;;;;;;;4938506;29;20027;-87
2021/08/08 11:20:03;;;;;;;0.50;0.22;;;;;;;;;;4939597;29;20023;-86
2021/08/08 11:22:30;;;;;;;0.90;0.30;;;;;;;;;;4938601;29;20036;-87
2021/08/08 11:24:57;;;;;;;0.93;0.30;;;;;;;;;;4938297;29;20039;-89
2021/08/08 11:27:30;;;;;;;1.17;0.30;;;;;;;;;;4938630;29;20028;-90
2021/08/08 11:30:07;;;;;;;0.57;0.30;;;;;;;;;;4943884;28;20026;-87
2021/08/08 11:35:43;;;;;;;1.15;0.20;;;;;;;;;;4955202;28;20028;-85
2021/08/08 11:38:44;;;;;;;1.08;0.30;;;;;;;;;;4956073;29;20003;-96
2021/08/08 11:41:29;;;;;;;0.90;0.35;;;;;;;;;;4890669;29;20072;-96
2021/08/08 11:44:06;;;;;;;0.93;0.30;;;;;;;;;;4870773;29;20037;-88
2021/08/08 11:46:33;;;;;;;2.58;0.30;;;;;;;;;;4910334;29;20036;-89
2021/08/08 11:48:59;;;;;;;0.43;0.13;;;;;;;;;;4921822;29;20048;-89
2021/08/08 11:51:26;;;;;;;0.80;0.20;;;;;;;;;;4937091;29;20087;-86
2021/08/08 11:53:55;;;;;;;0.57;0.22;;;;;;;;;;4937176;29;20524;-89
2021/08/08 11:56:22;;;;;;;0.52;0.20;;;;;;;;;;4921252;29;20023;-86
2021/08/08 11:58:50;;;;;;;0.70;0.45;;;;;;;;;;4921082;29;20485;-86
2021/08/08 12:01:20;;;;;;;0.82;0.20;;;;;;;;;;4921257;29;20471;-89
2021/08/08 12:03:46;;;;;;;1.05;0.30;;;;;;;;;;4922786;29;20035;-87
2021/08/08 12:06:13;;;;;;;0.68;0.30;;;;;;;;;;4946878;29;20024;-88
2021/08/08 12:08:39;;;;;;;3.90;0.40;;;;;;;;;;4945513;29;20563;-87
2021/08/08 12:11:05;;;;;;;1.38;0.20;;;;;;;;;;4929174;29;20075;-87
2021/08/08 12:13:31;;;;;;;0.90;0.22;;;;;;;;;;4927703;29;20070;-86
2021/08/08 12:15:58;;;;;;;0.52;0.20;;;;;;;;;;4945490;29;20028;-86
2021/08/08 12:18:28;;;;;;;0.60;0.10;;;;;;;;;;4945720;29;20031;-87
2021/08/08 12:20:54;;;;;;;1.02;0.10;;;;;;;;;;4947193;29;20027;-87
2021/08/08 12:23:24;;;;;;;0.70;0.20;;;;;;;;;;4941721;29;20032;-88
2021/08/08 12:26:00;;;;;;;6.00;0.30;;;;;;;;;;4937727;29;20035;-89
2021/08/08 12:28:26;;;;;;;0.93;0.30;;;;;;;;;;4938119;29;20062;-88
2021/08/08 12:31:07;;;;;;;4.50;0.40;;;;;;;;;;4938694;29;20389;-88
2021/08/08 12:33:39;;;;;;;0.80;0.20;;;;;;;;;;4940450;29;20059;-88
2021/08/08 12:36:10;;;;;;;0.70;0.20;;;;;;;;;;4939231;29;20461;-89
2021/08/08 12:38:46;;;;;;;0.47;0.20;;;;;;;;;;4939782;29;20489;-89
2021/08/08 12:41:12;;;;;;;3.88;0.22;;;;;;;;;;4940690;29;20425;-90
2021/08/08 12:43:38;;;;;;;0.60;0.30;;;;;;;;;;4937427;29;20035;-92
2021/08/08 12:46:11;;;;;;;0.52;0.20;;;;;;;;;;4938650;29;20034;-89
2021/08/08 12:48:37;;;;;;;0.85;0.22;;;;;;;;;;4937604;29;20023;-90
2021/08/08 12:51:03;;;;;;;0.40;0.17;;;;;;;;;;4937483;29;20075;-88
2021/08/08 12:53:29;;;;;;;0.55;0.20;;;;;;;;;;4938120;28;20494;-88
2021/08/08 12:55:55;;;;;;;3.38;0.40;;;;;;;;;;4936585;29;20024;-89
2021/08/08 12:58:22;;;;;;;0.98;0.32;;;;;;;;;;4937160;29;20031;-91
2021/08/08 13:00:48;;;;;;;0.82;0.22;;;;;;;;;;4937482;29;20087;-91
2021/08/08 13:03:17;;;;;;;0.50;0.20;;;;;;;;;;4937402;29;20082;-88
2021/08/08 13:05:43;;;;;;;1.58;0.10;;;;;;;;;;4937174;29;20039;-88
2021/08/08 13:08:09;;;;;;;0.90;0.30;;;;;;;;;;4937049;29;20494;-90
2021/08/08 13:10:36;;;;;;;1.23;0.30;;;;;;;;;;4937321;29;20039;-88
2021/08/08 13:13:02;;;;;;;0.40;0.20;;;;;;;;;;4937761;29;20127;-88
2021/08/08 13:15:29;;;;;;;0.40;0.20;;;;;;;;;;4937930;29;20034;-88
2021/08/08 13:17:55;;;;;;;0.85;0.30;;;;;;;;;;4936629;29;20061;-88
2021/08/08 13:20:25;;;;;;;0.50;0.20;;;;;;;;;;4936505;29;20032;-88
2021/08/08 13:22:52;;;;;;;1.65;0.38;;;;;;;;;;4936991;29;20397;-90
2021/08/08 13:25:18;;;;;;;0.70;0.30;;;;;;;;;;4936617;29;20057;-89
2021/08/08 13:27:44;;;;;;;0.60;0.30;;;;;;;;;;4936496;29;20540;-87
2021/08/08 13:30:11;;;;;;;0.60;0.17;;;;;;;;;;4936202;29;20027;-88
2021/08/08 13:32:37;;;;;;;3.97;0.28;;;;;;;;;;4936934;29;20131;-88
2021/08/08 13:35:04;;;;;;;1.90;0.43;;;;;;;;;;4937891;29;20394;-88
2021/08/08 13:37:30;;;;;;;1.00;0.30;;;;;;;;;;4936294;29;20484;-87
2021/08/08 13:39:59;;;;;;;0.57;0.28;;;;;;;;;;4936565;29;20496;-88
2021/08/08 13:42:25;;;;;;;0.60;0.30;;;;;;;;;;4936262;29;20201;-89
2021/08/08 13:44:51;;;;;;;1.20;0.30;;;;;;;;;;4937885;29;20031;-89
2021/08/08 13:47:22;;;;;;;2.58;0.40;;;;;;;;;;4947386;29;20020;-87
2021/08/08 13:49:48;;;;;;;0.60;0.28;;;;;;;;;;4944726;29;20016;-89
2021/08/08 13:52:14;;;;;;;0.20;0.10;;;;;;;;;;4947090;29;20055;-89
2021/08/08 13:54:40;;;;;;;1.30;0.40;;;;;;;;;;4937692;29;20083;-89
2021/08/08 13:57:06;;;;;;;1.05;0.30;;;;;;;;;;4936221;29;20032;-89
2021/08/08 13:59:35;;;;;;;1.00;0.20;;;;;;;;;;4936304;29;20028;-88
2021/08/08 14:02:01;;;;;;;2.63;0.40;;;;;;;;;;4936719;29;20051;-88
2021/08/08 14:04:28;;;;;;;0.60;0.20;;;;;;;;;;4941517;29;20038;-88
2021/08/08 14:06:54;;;;;;;0.75;0.30;;;;;;;;;;4936579;29;20027;-89
2021/08/08 14:09:21;;;;;;;0.70;0.22;;;;;;;;;;4936297;29;20026;-88
2021/08/08 14:11:47;;;;;;;1.08;0.30;;;;;;;;;;4938642;29;20106;-88
2021/08/08 14:14:15;;;;;;;0.70;0.30;;;;;;;;;;4940319;29;20487;-89
2021/08/08 14:16:41;;;;;;;0.75;0.30;;;;;;;;;;4936057;29;20035;-90
2021/08/08 14:19:07;;;;;;;1.23;0.30;;;;;;;;;;4935869;29;20028;-89
2021/08/08 14:21:34;;;;;;;1.27;0.32;;;;;;;;;;4936003;29;20050;-88
2021/08/08 14:24:00;;;;;;;0.63;0.20;;;;;;;;;;4936041;29;20078;-88
2021/08/08 14:26:26;;;;;;;1.05;0.32;;;;;;;;;;4937778;29;20136;-90
2021/08/08 14:28:52;;;;;;;1.30;0.47;;;;;;;;;;4937280;29;20027;-90
2021/08/08 14:31:18;;;;;;;0.80;0.30;;;;;;;;;;4935659;29;20031;-89
2021/08/08 14:33:44;;;;;;;1.40;0.35;;;;;;;;;;4935784;29;20042;-90
2021/08/08 14:36:10;;;;;;;0.70;0.30;;;;;;;;;;4935599;29;20027;-88
2021/08/08 14:38:36;;;;;;;0.80;0.30;;;;;;;;;;4935635;29;20039;-89
2021/08/08 14:41:02;;;;;;;0.88;0.30;;;;;;;;;;4938517;29;20028;-90
2021/08/08 14:43:28;;;;;;;1.52;0.38;;;;;;;;;;4935604;29;20123;-89
2021/08/08 14:45:55;;;;;;;0.30;0.15;;;;;;;;;;4935696;29;20568;-91